createdAt,value
2022-09-16T00:04:28.063Z,155.68385
2022-09-16T00:09:29.742Z,153.52381
2022-09-16T00:14:31.400Z,152.81356
2022-09-16T00:19:33.061Z,154.23891
2022-09-16T00:24:34.685Z,150.71141
2022-09-16T00:29:36.301Z,147.30033
2022-09-16T00:34:37.902Z,152.81356
2022-09-16T00:39:39.539Z,160.14035
2022-09-16T00:44:41.166Z,157.14879
2022-09-16T00:49:42.768Z,158.63415
2022-09-16T00:54:44.424Z,162.43972
2022-09-16T00:59:46.062Z,161.66784
2022-09-16T01:04:47.686Z,156.41379
2022-09-16T01:09:49.285Z,161.66784
2022-09-16T01:14:50.879Z,183.68872
2022-09-16T01:19:52.536Z,179.1145
2022-09-16T01:24:54.135Z,201.74059
2022-09-16T01:29:55.777Z,211.82609
2022-09-16T01:34:57.411Z,192.3871
2022-09-16T01:39:59.145Z,189.41833
2022-09-16T01:45:00.825Z,176.45283
2022-09-16T01:50:02.515Z,167.18841
2022-09-16T01:55:04.793Z,170.47059
2022-09-16T02:00:06.511Z,170.47059
2022-09-16T02:05:08.165Z,174.71161
2022-09-16T02:10:09.869Z,182.75969
2022-09-16T02:15:11.493Z,196.45902
2022-09-16T02:20:13.183Z,183.68872
2022-09-16T02:25:14.803Z,183.68872
2022-09-16T02:30:16.392Z,180.92308
2022-09-16T02:35:18.026Z,183.68872
2022-09-16T02:40:19.814Z,170.47059
2022-09-16T02:45:21.526Z,174.71161
2022-09-16T02:50:23.150Z,178.22053
2022-09-16T02:55:24.773Z,180.92308
2022-09-16T03:00:26.452Z,180.01533
2022-09-16T03:05:28.206Z,184.625
2022-09-16T03:10:29.849Z,194.4065
2022-09-16T03:15:31.457Z,181.83784
2022-09-16T03:20:33.066Z,177.33333
2022-09-16T03:25:34.685Z,186.51969
2022-09-16T03:30:36.287Z,181.83784
2022-09-16T03:35:37.909Z,175.57895
2022-09-16T03:40:39.698Z,181.83784
2022-09-16T03:45:41.379Z,183.68872
2022-09-16T03:50:42.970Z,188.44444
2022-09-16T03:55:44.628Z,186.51969
2022-09-16T04:00:46.256Z,200.66667
2022-09-16T04:05:47.866Z,188.44444
2022-09-16T04:10:49.499Z,182.75969
2022-09-16T04:15:51.143Z,185.56863
2022-09-16T04:20:52.771Z,191.38956
2022-09-16T04:25:54.407Z,187.47826
2022-09-16T04:30:56.072Z,185.56863
2022-09-16T04:35:57.759Z,186.51969
2022-09-16T04:40:59.435Z,184.625
2022-09-16T04:46:01.233Z,198.54545
2022-09-16T04:51:02.923Z,202.82353
2022-09-16T04:56:04.539Z,195.42857
2022-09-16T05:01:06.259Z,193.39271
2022-09-16T05:06:07.915Z,189.41833
2022-09-16T05:11:09.582Z,187.47826
2022-09-16T05:16:11.182Z,191.38956
2022-09-16T05:21:12.946Z,197.49794
2022-09-16T05:26:14.600Z,190.4
2022-09-16T05:31:16.257Z,190.4
2022-09-16T05:36:17.920Z,193.39271
2022-09-16T05:41:19.563Z,192.3871
2022-09-16T05:46:21.224Z,192.3871
2022-09-16T05:51:22.893Z,201.74059
2022-09-16T05:56:24.490Z,195.42857
2022-09-16T06:01:26.185Z,197.49794
2022-09-16T06:06:27.897Z,197.49794
2022-09-16T06:11:29.493Z,196.45902
2022-09-16T06:16:31.098Z,198.54545
2022-09-16T06:21:32.697Z,195.42857
2022-09-16T06:26:34.309Z,194.4065
2022-09-16T06:31:35.963Z,199.60166
2022-09-16T06:36:40.361Z,201.74059
2022-09-16T06:41:44.637Z,208.37768
2022-09-16T06:46:46.484Z,200.66667
2022-09-16T06:51:48.082Z,197.49794
2022-09-16T06:56:49.793Z,198.54545
2022-09-16T07:01:51.434Z,198.54545
2022-09-16T07:07:09.939Z,205.01695
2022-09-16T07:12:16.239Z,200.66667
2022-09-16T07:17:20.752Z,202.82353
2022-09-16T07:22:22.628Z,203.91561
2022-09-16T07:27:25.341Z,202.82353
2022-09-16T07:32:27.061Z,197.49794
2022-09-16T07:37:28.784Z,197.49794
2022-09-16T07:42:30.383Z,197.49794
2022-09-16T07:47:32.030Z,198.54545
2022-09-16T07:52:33.759Z,197.49794
2022-09-16T07:57:35.408Z,198.54545
2022-09-16T08:02:37.148Z,202.82353
2022-09-16T08:07:38.786Z,199.60166
2022-09-16T08:12:40.441Z,199.60166
2022-09-16T08:17:42.052Z,201.74059
2022-09-16T08:22:43.698Z,197.49794
2022-09-16T08:27:45.364Z,209.51724
2022-09-16T08:32:46.989Z,205.01695
2022-09-16T08:37:50.161Z,202.82353
2022-09-16T08:42:51.982Z,207.24786
2022-09-16T08:47:53.730Z,202.82353
2022-09-16T08:52:55.466Z,202.82353
2022-09-16T08:57:57.083Z,203.91561
2022-09-16T09:02:58.741Z,202.82353
2022-09-16T09:08:00.388Z,202.82353
2022-09-16T09:13:02.629Z,199.60166
2022-09-16T09:18:04.518Z,201.74059
2022-09-16T09:23:06.142Z,206.12766
2022-09-16T09:28:07.820Z,202.82353
2022-09-16T09:33:27.633Z,212.99563
2022-09-16T09:38:36.325Z,207.24786
2022-09-16T09:43:37.987Z,203.91561
2022-09-16T09:48:39.651Z,201.74059
2022-09-16T09:53:41.308Z,208.37768
2022-09-16T09:58:42.974Z,205.01695
2022-09-16T10:03:44.697Z,209.51724
2022-09-16T10:08:46.355Z,211.82609
2022-09-16T10:13:47.966Z,206.12766
2022-09-16T10:18:49.565Z,200.66667
2022-09-16T10:23:51.189Z,200.66667
2022-09-16T10:28:52.840Z,199.60166
2022-09-16T10:33:54.422Z,202.82353
2022-09-16T10:38:58.710Z,199.60166
2022-09-16T10:44:03.931Z,200.66667
2022-09-16T10:49:05.529Z,199.60166
2022-09-16T10:54:07.188Z,199.60166
2022-09-16T10:59:08.784Z,199.60166
2022-09-16T11:04:10.448Z,203.91561
2022-09-16T11:09:12.261Z,200.66667
2022-09-16T11:14:13.988Z,199.60166
2022-09-16T11:19:15.571Z,197.49794
2022-09-16T11:24:17.312Z,201.74059
2022-09-16T11:29:18.907Z,200.66667
2022-09-16T11:34:20.558Z,197.49794
2022-09-16T11:39:22.161Z,200.66667
2022-09-16T11:44:23.822Z,207.24786
2022-09-16T11:49:25.390Z,202.82353
2022-09-16T11:54:27.239Z,202.82353
2022-09-16T11:59:28.952Z,200.66667
2022-09-16T12:04:32.697Z,198.54545
2022-09-16T12:09:36.737Z,199.60166
2022-09-16T12:14:38.337Z,199.60166
2022-09-16T12:19:39.948Z,198.54545
2022-09-16T12:24:41.660Z,199.60166
2022-09-16T12:29:43.295Z,198.54545
2022-09-16T12:34:44.886Z,199.60166
2022-09-16T12:39:46.526Z,198.54545
2022-09-16T12:44:48.115Z,200.66667
2022-09-16T12:49:49.770Z,202.82353
2022-09-16T12:55:07.314Z,202.82353
2022-09-16T13:00:10.247Z,205.01695
2022-09-16T13:05:11.889Z,202.82353
2022-09-16T13:10:13.491Z,198.54545
2022-09-16T13:15:15.171Z,197.49794
2022-09-16T13:20:16.769Z,197.49794
2022-09-16T13:25:18.499Z,199.60166
2022-09-16T13:30:20.124Z,196.45902
2022-09-16T13:35:21.732Z,196.45902
2022-09-16T13:40:23.384Z,197.49794
2022-09-16T13:45:25.055Z,196.45902
2022-09-16T13:50:26.714Z,197.49794
2022-09-16T13:55:28.352Z,197.49794
2022-09-16T14:00:33.827Z,195.42857
2022-09-16T14:05:37.858Z,197.49794
2022-09-16T14:10:39.476Z,198.54545
2022-09-16T14:15:41.181Z,197.49794
2022-09-16T14:20:42.895Z,189.41833
2022-09-16T14:25:44.544Z,190.4
2022-09-16T14:30:46.247Z,191.38956
2022-09-16T14:35:48.009Z,192.3871
2022-09-16T14:40:49.660Z,195.42857
2022-09-16T14:45:51.294Z,198.54545
2022-09-16T14:50:52.897Z,200.66667
2022-09-16T15:00:56.141Z,198.54545
2022-09-16T15:05:57.747Z,199.60166
2022-09-16T15:10:59.386Z,196.45902
2022-09-16T15:16:01.154Z,198.54545
2022-09-16T15:21:02.904Z,197.49794
2022-09-16T15:26:04.621Z,199.60166
2022-09-16T15:31:06.268Z,198.54545
2022-09-16T15:36:07.928Z,198.54545
2022-09-16T15:41:09.594Z,199.60166
2022-09-16T15:46:11.265Z,206.12766
2022-09-16T15:51:13.039Z,201.74059
2022-09-16T15:56:14.701Z,198.54545
2022-09-16T16:01:16.384Z,196.45902
2022-09-16T16:06:18.044Z,192.3871
2022-09-16T16:11:19.638Z,194.4065
2022-09-16T16:16:21.303Z,191.38956
2022-09-16T16:21:22.964Z,194.4065
2022-09-16T16:26:24.549Z,192.3871
2022-09-16T16:31:26.230Z,199.60166
2022-09-16T16:36:27.856Z,205.01695
2022-09-16T16:41:29.463Z,199.60166
2022-09-16T16:46:31.186Z,199.60166
2022-09-16T16:51:32.801Z,196.45902
2022-09-16T16:56:34.409Z,203.91561
2022-09-16T17:01:36.083Z,203.91561
2022-09-16T17:06:37.911Z,198.54545
2022-09-16T17:11:39.555Z,198.54545
2022-09-16T17:16:41.170Z,199.60166
2022-09-16T17:21:42.772Z,199.60166
2022-09-16T17:26:44.370Z,199.60166
2022-09-16T17:31:45.957Z,199.60166
2022-09-16T17:36:47.537Z,197.49794
2022-09-16T17:41:49.187Z,194.4065
2022-09-16T17:46:50.813Z,193.39271
2022-09-16T17:51:52.421Z,195.42857
2022-09-16T17:56:54.130Z,194.4065
2022-09-16T18:01:55.785Z,202.82353
2022-09-16T18:06:57.422Z,200.66667
2022-09-16T18:11:59.042Z,198.54545
2022-09-16T18:17:00.735Z,205.01695
2022-09-16T18:22:02.395Z,203.91561
2022-09-16T18:27:04.047Z,208.37768
2022-09-16T18:32:05.692Z,208.37768
2022-09-16T18:37:07.329Z,199.60166
2022-09-16T18:42:08.915Z,209.51724
2022-09-16T18:47:10.521Z,208.37768
2022-09-16T18:52:12.769Z,210.66667
2022-09-16T18:57:14.384Z,217.77778
2022-09-16T19:02:16.238Z,217.77778
2022-09-16T19:07:17.952Z,221.47748
2022-09-16T19:12:19.577Z,219
2022-09-16T19:17:21.290Z,209.51724
2022-09-16T19:22:22.993Z,217.77778
2022-09-16T19:27:24.725Z,222.73303
2022-09-16T19:32:26.423Z,221.47748
2022-09-16T19:37:28.035Z,224
2022-09-16T19:42:29.647Z,224
2022-09-16T19:47:31.278Z,222.73303
2022-09-16T19:52:32.928Z,231.85047
2022-09-16T19:57:34.568Z,229.18519
2022-09-16T20:02:36.299Z,227.87097
2022-09-16T20:07:37.949Z,225.27854
2022-09-16T20:12:39.582Z,241.58454
2022-09-16T20:17:41.234Z,248.9505
2022-09-16T20:22:42.919Z,248.9505
2022-09-16T20:27:44.528Z,230.51163
2022-09-16T20:32:46.185Z,235.94313
2022-09-16T20:37:47.906Z,243.02913
2022-09-16T20:42:49.533Z,233.20188
2022-09-16T20:47:51.162Z,245.96078
2022-09-16T20:52:52.827Z,233.20188
2022-09-16T20:57:54.423Z,248.9505
2022-09-16T21:02:56.009Z,235.94313
2022-09-16T21:07:57.766Z,240.15385
2022-09-16T21:12:59.349Z,233.20188
2022-09-16T21:18:00.945Z,234.56604
2022-09-16T21:23:02.690Z,240.15385
2022-09-16T21:28:04.296Z,252
2022-09-16T21:33:06.014Z,250.46766
2022-09-16T21:38:07.946Z,233.20188
2022-09-16T21:43:09.596Z,161.66784
2022-09-16T21:48:11.208Z,186.51969
2022-09-16T21:53:12.845Z,192.3871
2022-09-16T21:58:14.824Z,240.15385
2022-09-16T22:03:16.480Z,288.13408
2022-09-16T22:08:18.103Z,280.61202
2022-09-16T22:13:19.912Z,263.17098
2022-09-16T22:18:21.571Z,286.22222
2022-09-16T22:23:23.204Z,276.97297
2022-09-16T22:28:24.797Z,284.33149
2022-09-16T22:33:26.381Z,294
2022-09-16T22:38:27.973Z,269.92593
2022-09-16T22:43:29.589Z,273.41176
2022-09-16T22:48:31.226Z,282.46154
2022-09-16T22:53:32.827Z,290.06742
2022-09-16T22:58:34.453Z,263.17098
2022-09-16T23:03:36.182Z,269.92593
2022-09-16T23:08:37.882Z,275.1828
2022-09-16T23:13:39.508Z,286.22222
2022-09-16T23:18:41.111Z,275.1828
2022-09-16T23:23:42.703Z,256.69036
2022-09-16T23:28:44.339Z,245.96078
2022-09-16T23:33:45.980Z,241.58454
2022-09-16T23:38:47.574Z,263.17098
2022-09-16T23:43:49.246Z,259.89744
2022-09-16T23:48:50.928Z,226.56881
2022-09-16T23:53:52.550Z,215.36564
2022-09-16T23:58:54.168Z,157.88889
